Terminal Aerodrome Forecast
Issued by NWS

Home | Current Version | Previous Version | Text Only | Print | Product List | Glossary On
Versions: 1 2 3 4 5 6 7 8 9 10 11 12 13 14
212
FTUS45 KMSO 270537
TAFSMN
TAF
KSMN 270537Z 2706/2806 21007KT P6SM BKN060
     FM271300 21007KT P6SM VCSH OVC050
     FM271600 35008KT P6SM -SHRASN OVC035
     FM272100 36011G20KT P6SM VCSH BKN035 OVC060
      AMD LTD TO CLD VIS AND WIND=

USA.gov is the U.S. government's official web portal to all federal, state and local government web resources and services.